WEATHER DATA

YESTERDAY
Time Temp. Dewp. Hum. Wind dir Wind speed Wind gust Bar. 1h Prec. 24h Prec.
00:19 7.6 1.7 66 260 1.1 1.7 1031.8 0.0000 0.0000
00:29 7.6 1.9 67 260 1.1 1.7 1031.8 0.0000 0.0000
00:39 7.5 1.8 67 254 1.1 1.7 1032 0.0000 0.0000
00:49 7.4 1.7 67 259 1.1 1.9 1031.7 0.0000 0.0000
00:59 7.2 1.7 68 259 1.1 3.1 1031.6 0.0000 0.0000
01:09 7.1 1.6 68 259 1.1 1.9 1031.8 0.0000 0.0000
01:19 7 1.7 69 255 1.4 2.5 1031.6 0.0000 0.0000
01:29 7 1.7 69 260 1.4 2.5 1031.4 0.0000 0.0000
01:39 7 1.7 69 270 1.1 1.9 1031.2 0.0000 0.0000
01:49 6.8 1.5 69 270 1.4 2.2 1030.8 0.0000 0.0000
01:59 6.7 1.6 70 260 1.4 3.1 1030.5 0.0000 0.0000
02:09 6.6 1.5 70 259 1.4 2.5 1030.3 0.0000 0.0000
02:20 6.7 1.8 71 257 1.4 3.1 1030.1 0.0000 0.0000
02:30 6.7 1.6 70 253 1.1 2.2 1030 0.0000 0.0000
02:39 6.8 1.7 70 261 1.1 2.5 1030 0.0000 0.0000
02:50 6.8 1.7 70 254 1.1 2.5 1029.9 0.0000 0.0000
03:00 6.9 1.8 70 252 1.1 1.9 1029.8 0.0000 0.0000
03:10 6.9 1.6 69 255 1.1 1.9 1029.5 0.0000 0.0000
03:20 6.9 1.6 69 261 1.1 1.9 1029.4 0.0000 0.0000
03:31 6.7 1.4 69 270 1.1 1.7 1029.4 0.0000 0.0000
03:40 6.6 1.5 70 270 1.1 1.9 1029.2 0.0000 0.0000
03:50 6.4 1.3 70 262 1.4 2.2 1028.9 0.0000 0.0000
04:01 6.1 1 70 260 1.4 2.5 1028.7 0.0000 0.0000
04:11 5.9 1.2 72 262 1.4 3.3 1028.9 0.0000 0.0000
04:21 5.7 1.1 72 258 1.4 3.1 1028.9 0.0000 0.0000
04:31 5.5 1.1 73 259 1.1 1.9 1028.9 0.0000 0.0000
04:41 5.5 1.1 73 270 1.1 1.9 1029 0.0000 0.0000
04:51 5.3 0.9 73 251 1.7 3.3 1029 0.0000 0.0000
05:01 5.1 0.7 73 255 1.7 3.1 1029 0.0000 0.0000
05:11 5.1 0.9 74 255 1.9 3.6 1029.1 0.0000 0.0000
05:22 5.1 0.9 74 264 1.9 3.6 1029.1 0.0000 0.0000
05:32 5 0.8 74 264 1.7 3.1 1029 0.0000 0.0000
05:42 4.8 0.6 74 257 1.7 3.1 1029.5 0.0000 0.0000
05:52 4.7 0.5 74 263 1.7 3.3 1029.3 0.0000 0.0000
06:02 4.7 0.7 75 270 1.9 3.1 1029 0.0000 0.0000
06:13 4.9 0.8 75 264 1.7 2.5 1028.9 0.0000 0.0000
06:22 4.9 0.8 75 270 1.7 3.1 1028.6 0.0000 0.0000
06:33 4.8 0.6 74 270 1.7 3.1 1028.4 0.0000 0.0000
06:43 4.9 0.8 75 280 1.7 2.2 1028.4 0.0000 0.0000
06:53 5.1 0.9 74 270 1.4 3.3 1028.6 0.0000 0.0000
07:02 5 0.6 73 270 1.4 2.5 1028.6 0.0000 0.0000
07:13 4.8 0.4 73 270 1.4 2.2 1028.8 0.0000 0.0000
07:24 4.8 0.4 73 279 1.4 2.2 1028.9 0.0000 0.0000
07:33 4.8 0.4 73 286 1.7 3.6 1029 0.0000 0.0000
07:44 4.8 0.4 73 308 3.1 5.6 1029.2 0.0000 0.0000
07:54 5 0.6 73 277 1.7 3.6 1029.3 0.0000 0.0000
08:04 5.2 0.8 73 284 1.9 3.6 1029.6 0.0000 0.0000
08:19 5.7 1.2 73 270 1.4 3.3 1029.2 0.0000 0.0000
08:30 6 1.3 72 281 1.1 2.2 1029.2 0.0000 0.0000
08:39 6.5 1.6 71 284 1.4 3.1 1029.3 0.0000 0.0000
08:49 7.1 2 70 248 1.4 3.6 1029.3 0.0000 0.0000
09:00 7.6 1.9 67 238 1.4 3.9 1029.4 0.0000 0.0000
09:10 8.3 2.5 67 237 1.7 3.9 1029.2 0.0000 0.0000
09:17 8.9 2.9 66 220 1.9 6.1 1029.2 0.0000 0.0000
09:27 9.9 3.9 66 194 4.4 7.8 1028.9 0.0000 0.0000
09:37 11.1 4.8 65 119 2.2 3.3 1028.8 0.0000 0.0000
09:47 11.8 5.2 64 185 1.7 4.2 1028.6 0.0000 0.0000
09:58 11.9 5.5 65 192 3.6 7.5 1028.6 0.0000 0.0000
10:07 12.2 6 66 181 3.3 8.9 1028.2 0.0000 0.0000
10:17 12.6 6.2 65 101 3.3 4.2 1028.4 0.0000 0.0000
10:28 12.8 6.4 65 131 4.2 6.9 1028.4 0.0000 0.0000
10:39 12.9 6.7 66 156 3.3 6.9 1028.3 0.0000 0.0000
10:49 12.9 6.9 67 208 3.3 7.2 1028 0.0000 0.0000
10:59 12.8 7 68 187 3.6 7.8 1027.9 0.0000 0.0000
11:09 12.9 7.1 68 201 3.3 7.8 1027.8 0.0000 0.0000
11:19 13.1 6.9 66 164 3.9 6.1 1028.1 0.0000 0.0000
11:29 13.1 6.7 65 174 2.5 5 1027.9 0.0000 0.0000
11:39 13.3 6.9 65 198 3.3 7.8 1027.6 0.0000 0.0000
11:50 13.2 7.2 67 163 2.5 6.9 1027.8 0.0000 0.0000
11:59 13.5 7.7 68 188 3.1 5.8 1027.5 0.0000 0.0000
12:07 13.6 7.8 68 198 2.5 10.8 1027.5 0.0000 0.0000
12:17 14 8 67 181 2.5 5.3 1027.1 0.0000 0.0000
12:27 14.1 8.1 67 183 2.5 6.7 1027.1 0.0000 0.0000
12:37 14.1 8.1 67 189 2.5 5 1027 0.0000 0.0000
12:47 14.3 8 66 169 2.5 6.1 1026.7 0.0000 0.0000
12:55 14.2 7.7 65 193 3.6 11.4 1026.6 0.0000 0.0000
13:06 14.1 7.9 66 218 5.3 8.1 1026.4 0.0000 0.0000
13:15 14.2 7.9 66 218 5.3 8.1 1026.2 0.0000 0.0000
13:25 13.8 7.8 67 151 5 6.1 1025.9 0.0000 0.0000
13:41 14 8.2 68 207 11.1 14.7 1025.6 0.0000 0.0000
13:52 14 8.2 68 220 1.9 5 1025.2 0.0000 0.0000
14:12 14.1 8.5 69 336 1.1 1.9 1025.1 0.0000 0.0000
14:22 14.2 8.6 69 349 1.4 1.9 1025 0.0000 0.0000
14:32 14.3 8.9 70 18 1.4 2.2 1024.9 0.0000 0.0000
14:42 14.3 8.9 70 23 1.4 1.9 1024.8 0.0000 0.0000
14:52 14.2 8.8 70 19 1.4 1.9 1024.6 0.0000 0.0000
15:03 14.1 8.7 70 24 1.4 1.9 1024.6 0.0000 0.0000
15:12 14.1 8.7 70 7 1.4 1.9 1024.7 0.0000 0.0000
15:22 14 8.6 70 13 1.4 2.2 1024.7 0.0000 0.0000
15:33 13.8 8.4 70 9 1.4 1.9 1025 0.0000 0.0000
15:43 13.6 8.4 71 3 1.1 1.9 1025 0.0000 0.0000
15:53 13.5 8.6 72 335 0.6 1.4 1024.8 0.0000 0.0000
16:03 13.5 8.6 72 355 1.1 1.7 1024.8 0.0000 0.0000
16:14 13.5 8.6 72 334 1.1 1.7 1024.6 0.0000 0.0000
16:24 13.4 8.5 72 14 1.4 2.2 1024.7 0.0000 0.0000
16:34 13.2 8.3 72 356 1.4 1.9 1024.7 0.0000 0.0000
16:44 13.1 8 71 321 1.4 2.2 1024.7 0.0000 0.0000
16:55 13.1 7.8 70 10 1.4 2.2 1024.5 0.0000 0.0000
17:04 13 7.7 70 4 1.4 2.2 1024.5 0.0000 0.0000
17:15 12.9 7.8 71 9 1.4 2.2 1024.6 0.0000 0.0000
17:24 12.9 8 72 10 1.4 2.2 1024.5 0.0000 0.0000
17:37 12.8 8.1 73 348 1.4 2.2 1024.4 0.0000 0.0000
17:47 12.7 8 73 354 1.1 1.7 1024.4 0.0000 0.0000
17:58 12.6 7.9 73 345 1.4 2.2 1024.6 0.0000 0.0000
18:08 12.5 8 74 335 1.1 1.9 1024.6 0.0000 0.0000
18:17 12.4 7.9 74 2 1.4 2.5 1024.5 0.0000 0.0000
18:28 12.3 7.8 74 332 1.7 2.5 1024.5 0.0000 0.0000
18:38 12.2 7.9 75 358 1.7 2.5 1024.8 0.0000 0.0000
18:48 12.1 7.8 75 357 1.4 1.9 1024.9 0.0000 0.0000
18:58 12 7.7 75 347 1.1 1.7 1024.9 0.0000 0.0000
19:08 11.8 7.3 74 308 1.1 1.7 1024.8 0.0000 0.0000
19:18 11.5 6.8 73 290 1.1 1.9 1024.4 0.0000 0.0000
19:32 11.3 6.2 71 286 1.1 1.7 1024.4 0.0000 0.0000
19:42 11.1 5.8 70 282 1.1 1.7 1024.4 0.0000 0.0000
19:52 10.9 5.7 70 262 1.4 1.9 1024.6 0.0000 0.0000
20:03 10.6 5.4 70 262 1.4 1.9 1024.5 0.0000 0.0000
20:12 10.3 5.1 70 259 1.1 1.9 1024.5 0.0000 0.0000
20:32 10 5 71 270 1.1 1.7 1024.2 0.0000 0.0000
20:42 9.8 4.8 71 270 1.1 1.7 1024 0.0000 0.0000
20:52 9.6 4.6 71 270 1.1 1.9 1024 0.0000 0.0000
21:02 9.4 4.4 71 270 0.6 1.7 1024 0.0000 0.0000
21:13 9.2 4.2 71 284 1.1 1.9 1023.7 0.0000 0.0000
21:23 9.2 3.8 69 270 1.1 1.9 1023.8 0.0000 0.0000
21:32 9.2 3.8 69 270 0.6 1.7 1023.3 0.0000 0.0000
21:44 9.4 3.8 68 308 1.1 1.7 1023.1 0.0000 0.0000
21:55 9.4 3.6 67 276 1.4 1.9 1022.8 0.0000 0.0000
22:05 9.5 3.5 66 295 1.1 1.9 1022.9 0.0000 0.0000
22:15 9.4 3.4 66 295 1.1 1.9 1022.6 0.0000 0.0000
22:25 9.2 3.2 66 300 1.1 1.9 1022.5 0.0000 0.0000
22:36 9 3 66 305 1.1 1.7 1022.3 0.0000 0.0000
22:46 9 3 66 309 1.1 1.7 1022.4 0.0000 0.0000
22:56 8.9 2.7 65 321 1.1 1.7 1022.4 0.0000 0.0000
23:05 8.6 2.4 65 345 1.1 1.7 1022.5 0.0000 0.0000
23:16 8.3 2.5 67 341 1.4 1.9 1022.3 0.0000 0.0000
23:26 8 2.5 68 347 1.1 1.7 1022.2 0.0000 0.0000
23:36 7.8 2.5 69 336 1.1 1.7 1022.5 0.0000 0.0000
23:46 7.7 2.6 70 329 1.4 1.9 1022.3 0.0000 0.0000
23:57 7.6 2.7 71 320 1.4 1.9 1022.4 0.0000

DAY STATISTIC

2020-02-23
TEMPERATURE
AVERAGE
9.7
HIGH
14.3
12:47
LOW
4.7
05:52
PRESSURE
AVERAGE
1026.9
HIGH
1032.0
00:39
LOW
1022.2
23:26
DEWPOINT
AVERAGE
4.4
HIGH
8.9
14:32
LOW
0.4
07:13
HUMIDITY
AVERAGE
70
HIGH
75
06:02
LOW
64
09:47
WIND SPEED
AVERAGE
1.8
HIGH
11.1
13:41
WIND GUST
AVERAGE
3.3
HIGH
14.7
13:41
WIND DIRECTION
PREVAILING
W
46.4%
N
17.4
NE
1.4
E
0.7
SE
2.9
S
12.3
SW
5.8
W
46.4
NW
13.0
PRECIPITATION
RAIN HOUR
0.0
RAIN DAY
0.0
TEMPERATURE (°C)
LOW
4.7
HIGH
14.3
AVERAGE
9.7
PRESSURE (hpa)
LOW
1022.2
HIGH
1032.0
AVERAGE
1026.9
DEVICE